createdAt,value
2022-11-30T00:08:20.045Z,21.55
2022-11-30T00:13:26.156Z,22.23
2022-11-30T00:18:30.283Z,21.80
2022-11-30T00:23:35.416Z,16.95
2022-11-30T00:28:42.103Z,17.83
2022-11-30T00:33:46.324Z,19.08
2022-11-30T00:38:54.403Z,17.98
2022-11-30T00:44:00.076Z,20.65
2022-11-30T00:49:04.061Z,18.13
2022-11-30T00:54:08.528Z,17.80
2022-11-30T00:59:14.320Z,19.23
2022-11-30T01:09:22.315Z,15.02
2022-11-30T01:14:28.072Z,15.65
2022-11-30T01:24:35.841Z,20.02
2022-11-30T01:29:43.336Z,17.35
2022-11-30T01:34:47.561Z,19.58
2022-11-30T01:39:51.947Z,16.50
2022-11-30T01:44:58.452Z,16.38
2022-11-30T01:50:07.575Z,14.35
2022-11-30T01:55:19.244Z,14.82
2022-11-30T02:00:25.400Z,17.00
2022-11-30T02:05:30.199Z,13.63
2022-11-30T02:10:38.425Z,11.67
2022-11-30T02:15:52.454Z,15.40
2022-11-30T02:21:14.603Z,16.05
2022-11-30T02:26:35.309Z,15.73
2022-11-30T02:31:52.303Z,13.80
2022-11-30T02:36:57.701Z,16.52
2022-11-30T02:42:02.162Z,13.95
2022-11-30T02:47:19.481Z,13.50
2022-11-30T02:52:27.421Z,12.70
2022-11-30T02:57:31.670Z,10.80
2022-11-30T03:02:37.914Z,15.30
2022-11-30T03:07:42.315Z,9.40
2022-11-30T03:12:46.355Z,13.32
2022-11-30T03:17:51.927Z,12.50
2022-11-30T03:22:55.959Z,14.45
2022-11-30T03:28:01.791Z,13.20
2022-11-30T03:33:07.162Z,11.77
2022-11-30T03:38:11.340Z,13.82
2022-11-30T03:43:15.375Z,15.20
2022-11-30T03:48:20.968Z,12.70
2022-11-30T03:53:26.468Z,16.10
2022-11-30T03:58:31.270Z,16.48
2022-11-30T04:03:37.306Z,15.55
2022-11-30T04:08:43.531Z,15.88
2022-11-30T04:13:47.601Z,13.88
2022-11-30T04:18:52.999Z,14.57
2022-11-30T04:23:56.996Z,15.93
2022-11-30T04:29:04.266Z,17.70
2022-11-30T04:34:11.049Z,15.85
2022-11-30T04:39:19.120Z,13.70
2022-11-30T04:44:23.678Z,14.10
2022-11-30T04:49:29.811Z,19.57
2022-11-30T04:54:34.460Z,15.63
2022-11-30T04:59:39.107Z,16.45
2022-11-30T05:04:49.401Z,18.05
2022-11-30T05:09:54.019Z,13.70
2022-11-30T05:14:58.184Z,16.08
2022-11-30T05:20:07.086Z,13.80
2022-11-30T05:25:12.383Z,17.90
2022-11-30T05:30:16.876Z,16.77
2022-11-30T05:35:22.459Z,21.95
2022-11-30T05:40:28.258Z,19.27
2022-11-30T05:50:38.069Z,14.75
2022-11-30T05:55:42.083Z,18.30
2022-11-30T06:00:46.501Z,18.05
2022-11-30T06:05:52.937Z,19.73
2022-11-30T06:11:02.030Z,20.80
2022-11-30T06:16:09.514Z,21.48
2022-11-30T06:21:19.594Z,28.50
2022-11-30T06:26:26.927Z,20.52
2022-11-30T06:31:32.287Z,27.13
2022-11-30T06:36:40.287Z,26.77
2022-11-30T06:41:44.419Z,22.42
2022-11-30T06:46:48.501Z,18.75
2022-11-30T06:51:54.773Z,20.73
2022-11-30T06:56:59.115Z,17.45
2022-11-30T07:02:08.803Z,16.35
2022-11-30T07:07:17.232Z,16.38
2022-11-30T07:12:21.870Z,17.45
2022-11-30T07:17:25.954Z,25.25
2022-11-30T07:22:34.470Z,22.50
2022-11-30T07:27:38.640Z,24.77
2022-11-30T07:32:42.644Z,23.17
2022-11-30T07:37:48.284Z,19.67
2022-11-30T07:42:56.370Z,17.98
2022-11-30T07:48:01.702Z,23.95
2022-11-30T07:53:07.275Z,19.58
2022-11-30T07:58:17.141Z,23.50
2022-11-30T08:03:21.716Z,23.83
2022-11-30T08:08:30.479Z,25.52
2022-11-30T08:13:34.786Z,16.80
2022-11-30T08:18:38.840Z,19.33
2022-11-30T08:23:46.039Z,24.63
2022-11-30T08:28:52.610Z,24.70
2022-11-30T08:33:57.763Z,20.58
2022-11-30T08:39:05.448Z,21.23
2022-11-30T08:44:09.687Z,28.33
2022-11-30T08:49:23.099Z,26.60
2022-11-30T08:54:30.047Z,26.15
2022-11-30T08:59:34.392Z,28.45
2022-11-30T09:04:39.089Z,25.17
2022-11-30T09:09:45.194Z,26.15
2022-11-30T09:14:57.405Z,23.55
2022-11-30T09:20:02.830Z,21.75
2022-11-30T09:25:14.899Z,22.05
2022-11-30T09:30:19.376Z,26.23
2022-11-30T09:35:24.194Z,23.67
2022-11-30T09:40:34.187Z,23.67
2022-11-30T09:45:42.688Z,29.23
2022-11-30T09:50:48.804Z,21.65
2022-11-30T10:01:07.260Z,18.42
2022-11-30T10:06:19.578Z,25.73
2022-11-30T10:11:42.514Z,23.52
2022-11-30T10:16:56.803Z,22.42
2022-11-30T10:22:10.392Z,25.60
2022-11-30T10:27:21.810Z,20.90
2022-11-30T10:32:34.560Z,18.15
2022-11-30T10:37:43.114Z,27.40
2022-11-30T10:42:53.556Z,45.60
2022-11-30T10:48:03.573Z,23.77
2022-11-30T10:53:08.025Z,29.45
2022-11-30T10:58:21.074Z,28.00
2022-11-30T11:03:27.133Z,31.83
2022-11-30T11:08:31.353Z,25.73
2022-11-30T11:13:42.257Z,26.20
2022-11-30T11:18:55.079Z,25.27
2022-11-30T11:23:59.961Z,24.52
2022-11-30T11:29:05.641Z,24.53
2022-11-30T11:39:30.890Z,30.00
2022-11-30T11:44:36.294Z,27.65
2022-11-30T11:49:40.483Z,30.38
2022-11-30T11:54:51.170Z,26.90
2022-11-30T12:00:02.826Z,29.17
2022-11-30T12:05:14.839Z,25.63
2022-11-30T12:10:51.931Z,27.15
2022-11-30T12:16:11.362Z,23.33
2022-11-30T12:21:17.138Z,27.23
2022-11-30T12:26:30.930Z,24.83
2022-11-30T12:31:45.575Z,26.13
2022-11-30T12:36:59.858Z,23.25
2022-11-30T12:42:09.073Z,26.38
2022-11-30T12:47:31.141Z,29.17
2022-11-30T12:52:44.718Z,20.60
2022-11-30T12:58:01.142Z,22.98
2022-11-30T13:03:31.876Z,21.33
2022-11-30T13:08:43.858Z,25.63
2022-11-30T13:13:52.138Z,21.83
2022-11-30T13:19:03.067Z,26.67
2022-11-30T13:24:15.452Z,22.17
2022-11-30T13:29:52.379Z,27.75
2022-11-30T13:35:36.367Z,25.27
2022-11-30T13:40:40.486Z,24.88
2022-11-30T13:45:44.664Z,22.25
2022-11-30T13:50:51.256Z,25.80
2022-11-30T13:56:07.763Z,26.15
2022-11-30T14:01:27.633Z,19.98
2022-11-30T14:06:50.125Z,20.35
2022-11-30T14:11:53.998Z,21.75
2022-11-30T14:16:59.663Z,20.65
2022-11-30T14:22:06.232Z,20.00
2022-11-30T14:27:17.585Z,19.55
2022-11-30T14:32:31.339Z,20.42
2022-11-30T14:37:42.491Z,22.60
2022-11-30T14:42:51.933Z,24.35
2022-11-30T14:48:06.755Z,28.13
2022-11-30T14:53:24.710Z,21.67
2022-11-30T14:58:36.851Z,27.88
2022-11-30T15:03:40.992Z,30.63
2022-11-30T15:08:50.085Z,30.45
2022-11-30T15:13:58.301Z,26.95
2022-11-30T15:19:21.424Z,26.58
2022-11-30T15:24:28.371Z,29.52
2022-11-30T15:29:36.813Z,33.35
2022-11-30T15:34:53.611Z,38.67
2022-11-30T15:40:04.080Z,36.88
2022-11-30T15:45:18.496Z,48.95
2022-11-30T15:50:40.490Z,38.63
2022-11-30T15:55:48.034Z,31.33
2022-11-30T16:01:09.345Z,33.17
2022-11-30T16:06:20.450Z,33.17
2022-11-30T16:11:26.018Z,30.08
2022-11-30T16:16:32.802Z,28.85
2022-11-30T16:21:37.159Z,36.65
2022-11-30T16:26:52.703Z,35.97
2022-11-30T16:31:56.888Z,41.90
2022-11-30T16:37:01.054Z,56.90
2022-11-30T16:42:07.153Z,49.40
2022-11-30T16:47:11.176Z,46.95
2022-11-30T16:52:18.191Z,51.28
2022-11-30T16:57:23.979Z,48.95
2022-11-30T17:07:33.910Z,44.67
2022-11-30T17:12:40.459Z,47.37
2022-11-30T17:17:44.877Z,46.80
2022-11-30T17:22:49.016Z,51.97
2022-11-30T17:27:54.594Z,62.72
2022-11-30T17:38:02.782Z,56.00
2022-11-30T17:43:08.473Z,55.03
2022-11-30T17:48:12.642Z,55.63
2022-11-30T17:53:18.276Z,55.25
2022-11-30T18:03:27.572Z,54.97
2022-11-30T18:08:34.379Z,57.63
2022-11-30T18:13:39.941Z,56.80
2022-11-30T18:18:48.183Z,58.22
2022-11-30T18:23:53.216Z,54.63
2022-11-30T18:29:00.677Z,54.78
2022-11-30T18:34:07.112Z,56.95
2022-11-30T18:39:11.185Z,43.88
2022-11-30T18:44:16.832Z,57.35
2022-11-30T18:54:26.676Z,57.17
2022-11-30T18:59:31.914Z,58.80
2022-11-30T19:04:36.147Z,57.45
2022-11-30T19:09:40.179Z,45.28
2022-11-30T19:14:45.911Z,35.63
2022-11-30T19:19:50.302Z,27.58
2022-11-30T19:24:54.404Z,32.17
2022-11-30T19:30:01.043Z,27.77
2022-11-30T19:35:05.945Z,34.90
2022-11-30T19:40:10.689Z,31.90
2022-11-30T19:45:16.176Z,31.73
2022-11-30T19:50:20.383Z,34.25
2022-11-30T19:55:24.521Z,29.45
2022-11-30T20:00:29.944Z,36.60
2022-11-30T20:10:41.238Z,28.52
2022-11-30T20:15:46.601Z,32.90
2022-11-30T20:20:50.566Z,29.45
2022-11-30T20:25:54.628Z,30.58
2022-11-30T20:31:03.503Z,30.52
2022-11-30T20:36:10.411Z,32.47
2022-11-30T20:41:16.771Z,32.13
2022-11-30T20:46:24.251Z,25.00
2022-11-30T20:51:31.763Z,27.27
2022-11-30T20:56:37.523Z,34.03
2022-11-30T21:01:44.396Z,30.23
2022-11-30T21:06:48.775Z,26.33
2022-11-30T21:11:52.735Z,26.58
2022-11-30T21:16:58.016Z,24.75
2022-11-30T21:22:01.757Z,29.85
2022-11-30T21:27:05.697Z,30.58
2022-11-30T21:32:11.121Z,26.40
2022-11-30T21:37:15.085Z,25.15
2022-11-30T21:42:19.113Z,29.35
2022-11-30T21:47:24.353Z,23.77
2022-11-30T21:52:28.310Z,23.30
2022-11-30T21:57:32.391Z,24.05
2022-11-30T22:02:38.936Z,30.50
2022-11-30T22:07:43.049Z,24.63
2022-11-30T22:12:46.871Z,26.83
2022-11-30T22:17:52.716Z,31.10
2022-11-30T22:28:00.570Z,33.83
2022-11-30T22:33:05.853Z,23.65
2022-11-30T22:38:09.728Z,26.70
2022-11-30T22:43:13.975Z,23.50
2022-11-30T22:48:19.110Z,25.45
2022-11-30T22:53:22.905Z,25.40
2022-11-30T22:58:26.775Z,25.35
2022-11-30T23:03:32.047Z,22.33
2022-11-30T23:08:36.655Z,21.80
2022-11-30T23:13:41.475Z,23.25
2022-11-30T23:18:48.915Z,22.63
2022-11-30T23:23:53.020Z,19.67
2022-11-30T23:28:59.735Z,21.80
2022-11-30T23:34:08.150Z,25.15
2022-11-30T23:39:14.004Z,24.17
2022-11-30T23:44:17.971Z,22.73
2022-11-30T23:49:23.265Z,29.52
2022-11-30T23:54:27.113Z,26.75
2022-11-30T23:59:30.847Z,25.38
